1.79 0.84
as at 24 January 2015


Welshpool Mid Wales Airport lies in the beautiful Severn valley and is on the edge of some of the most stunning open flying country anywhere in the UK.

runway04dusk

Developed from the 1990s onwards, the airport is now a home for numerous business and light aircraft. It is also the base for the Mid Wales Air Ambulance. Here you can get lessons and gain a licence flying helicopters, fixed wing aircraft and microlights. You could also just come along and watch the comings and goings of a busy general aviation hub.

New cafe service

We are pleased to announce a new cafe service at Mid-Wales Airport. Jo Lewis has joined us and has an exciting menu prepared for all our visitors.

Jo’s menu includes:

  • All day breakfasts
  • Bacon baps
  • Soup of the day
  • A selection of panini and toasted sandwiches
  • A variety of cakes, scones and flapjacks

The cafe service is currently open on weekends from 12pm-3pm. Out of hours, hot and cold drinks, cakes and other snacks are available. The cafe service maybe extended through the week if there is sufficient demand.

We look forward to seeing you.

Partly Cloudy

6°C

Welshpool

Partly Cloudy

Wind: 38.62 km/h

SHAWBURY
METAR: EGOS 031550Z 24021KT 9999 FEW038 06/M03 Q1014 BLU NOSIG =
TAF: TAF EGOS 031355Z 0315/0324 23015G25KT 9999 FEW025 PROB30 TEMPO 0315/0318 6000 -SHRASN SCT018CB TEMPO 0318/0321 4000 SHRASN BKN018CB PROB30 TEMPO 0321/0324 6000 -SHRASN SCT020TCU =
SR / SS: 06:53 / 17:55 UTC